KRKW

Rockwood Municipal Airport

Rockwood, Tennessee, USA
METAR KRKW 162355Z AUTO VRB05KT 10SM OVC006 06/05 A3015 RMK A01
Observed Flight Rules
Dec-16 @ 23:55 UTC (29 minutes ago) Instrument Flight Rules
Wind Visibility Clouds
Variable at 5 knots 10 miles
  • Overcast at 600' AGL
Temperatures Readings
Current 6°C / 43°F
Dewpoint 5°C / 41°F
Humidity 93%
Altimeter 30.15" Hg
Pressure 1021 hPa
Elevation 508
METAR KRKW 162355Z AUTO VRB05KT 10SM OVC006 06/05 A3015 RMK A01
Observed Flight Rules
Dec-16 @ 23:55 UTC
(29 minutes ago)
IFR
Wind Visibility
Variable at 5 knots 10 miles
Clouds
  • Overcast at 600' AGL
Temperature Dewpoint
6°C / 43°F 5°C / 41°F
Humidity Altimeter Pressure
93% 30.15" Hg 1021 hPa